Time;durP1;ratioP1;P1;durP2;ratioP2;P2;SDS_P1;SDS_P2;PMS_P1;PMS_P2;Temp;Humidity;BMP_temperature;BMP_pressure;BME280_temperature;BME280_humidity;BME280_pressure;Samples;Min_cycle;Max_cycle;Signal;HPM_P1;HPM_P2
2023/09/06 00:00:33;;;;;;;;;;;;;;;20.44;100.00;99898.34;4992555;28;20515;-85
2023/09/06 00:02:59;;;;;;;;;;;;;;;20.59;100.00;99900.75;4993455;28;19964;-87
2023/09/06 00:05:25;;;;;;;;;;;;;;;20.39;100.00;99888.94;4993841;28;19962;-87
2023/09/06 00:07:50;;;;;;;;;;;;;;;19.64;100.00;99890.44;4976405;28;19964;-88
2023/09/06 00:10:15;;;;;;;;;;;;;;;17.74;100.00;99913.44;4993617;28;20005;-87
2023/09/06 00:12:41;;;;;;;;;;;;;;;17.92;100.00;99913.97;4976105;28;20389;-87
2023/09/06 00:15:10;;;;;;;;;;;;;;;18.46;100.00;99904.72;4991699;28;19925;-87
2023/09/06 00:17:37;;;;;;;;;;;;;;;18.16;100.00;99907.81;4993586;28;20364;-87
2023/09/06 00:20:19;;;;;;;;;;;;;;;17.79;100.00;99913.13;4993593;28;19929;-88
2023/09/06 00:22:45;;;;;;;;;;;;;;;17.21;100.00;99910.84;4976216;28;19940;-85
2023/09/06 00:25:12;;;;;;;;;;;;;;;17.31;100.00;99912.88;4993350;28;20137;-86
2023/09/06 00:27:37;;;;;;;;;;;;;;;16.78;100.00;99913.72;4992499;28;19925;-87
2023/09/06 00:30:02;;;;;;;;;;;;;;;16.49;100.00;99921.84;4992283;28;19997;-85
2023/09/06 00:32:28;;;;;;;;;;;;;;;16.98;100.00;99923.13;4992473;28;19925;-85
2023/09/06 00:34:53;;;;;;;;;;;;;;;17.11;100.00;99919.63;4993289;28;19917;-84
2023/09/06 00:37:18;;;;;;;;;;;;;;;17.00;100.00;99931.06;4992415;28;19964;-84
2023/09/06 00:39:45;;;;;;;;;;;;;;;17.97;100.00;99922.53;4975761;28;19922;-83
2023/09/06 00:42:10;;;;;;;;;;;;;;;18.12;100.00;99906.31;4993256;28;19918;-87
2023/09/06 00:44:35;;;;;;;;;;;;;;;14.30;100.00;99919.00;4991950;28;19922;-88
2023/09/06 00:47:01;;;;;;;;;;;;;;;12.77;100.00;99935.94;4993143;28;19921;-88
2023/09/06 00:49:26;;;;;;;;;;;;;;;12.10;100.00;99924.97;4992913;28;19957;-89
2023/09/06 00:51:51;;;;;;;;;;;;;;;11.73;100.00;99930.16;4993142;28;20479;-88
2023/09/06 00:54:16;;;;;;;;;;;;;;;11.42;100.00;99941.25;4992811;28;19918;-90
2023/09/06 00:56:42;;;;;;;;;;;;;;;11.23;100.00;99938.53;4993014;28;19957;-89
2023/09/06 05:12:23;;;;;;;;;;;;;;;6.46;100.00;99998.09;5620394;22;19940;-85
2023/09/06 05:14:52;;;;;;;;;;;;;;;6.48;100.00;99999.78;5032309;28;19921;-94
2023/09/06 05:17:18;;;;;;;;;;;;;;;6.49;100.00;99998.91;5032140;28;20007;-88
2023/09/06 05:19:43;;;;;;;;;;;;;;;6.43;100.00;99996.41;5032053;28;20008;-87
2023/09/06 05:22:09;;;;;;;;;;;;;;;6.40;100.00;99998.22;5031172;28;20303;-87
2023/09/06 05:24:34;;;;;;;;;;;;;;;6.43;100.00;100000.78;5031884;28;20364;-85
2023/09/06 05:26:59;;;;;;;;;;;;;;;6.42;100.00;99999.06;5029893;28;20011;-87
2023/09/06 05:29:27;;;;;;;;;;;;;;;6.40;100.00;99998.22;5032000;28;19972;-88
2023/09/06 05:31:52;;;;;;;;;;;;;;;6.48;100.00;99993.69;5013893;28;20371;-86
2023/09/06 05:34:17;;;;;;;;;;;;;;;6.50;100.00;100002.41;5031840;28;19972;-87
2023/09/06 05:36:42;;;;;;;;;;;;;;;6.53;100.00;99999.69;5031860;28;20383;-88
2023/09/06 05:39:08;;;;;;;;;;;;;;;6.49;100.00;100000.66;5031875;28;19921;-87
2023/09/06 05:41:33;;;;;;;;;;;;;;;6.40;100.00;100001.75;5031944;28;20070;-88
2023/09/06 05:43:58;;;;;;;;;;;;;;;6.38;100.00;99997.41;5035900;28;19921;-88
2023/09/06 05:46:23;;;;;;;;;;;;;;;6.40;100.00;99991.22;5017713;28;19921;-88
2023/09/06 05:48:49;;;;;;;;;;;;;;;6.36;100.00;99994.78;5035598;28;20079;-87
2023/09/06 05:51:14;;;;;;;;;;;;;;;6.32;100.00;100003.69;5035890;28;19921;-88
2023/09/06 05:53:39;;;;;;;;;;;;;;;6.33;100.00;100001.00;5035582;28;20436;-87
2023/09/06 05:56:05;;;;;;;;;;;;;;;6.44;100.00;100006.00;5016723;28;19925;-87
2023/09/06 05:58:37;;;;;;;;;;;;;;;6.35;100.00;100009.72;5017257;28;19917;-86
2023/09/06 06:01:03;;;;;;;;;;;;;;;6.29;100.00;100001.97;5035097;28;19917;-87
2023/09/06 06:03:28;;;;;;;;;;;;;;;6.36;100.00;100000.91;5035524;28;19924;-85
2023/09/06 06:05:55;;;;;;;;;;;;;;;6.34;100.00;100000.09;5035609;28;19928;-84
2023/09/06 06:08:20;;;;;;;;;;;;;;;6.38;100.00;100002.66;5035346;28;20299;-84
2023/09/06 06:10:45;;;;;;;;;;;;;;;6.40;100.00;100000.84;5035321;28;20078;-84
2023/09/06 06:13:12;;;;;;;;;;;;;;;6.38;100.00;100000.88;5033161;28;19921;-84
2023/09/06 06:15:37;;;;;;;;;;;;;;;6.40;100.00;100006.13;5035402;28;19921;-85
2023/09/06 06:18:02;;;;;;;;;;;;;;;6.42;100.00;99999.06;5035573;28;20008;-84
2023/09/06 06:20:28;;;;;;;;;;;;;;;6.42;100.00;100009.59;5035211;28;19921;-84
2023/09/06 06:22:53;;;;;;;;;;;;;;;6.36;100.00;100005.31;5035265;28;19925;-85
2023/09/06 06:25:18;;;;;;;;;;;;;;;6.31;100.00;100002.78;5035126;28;19961;-86
2023/09/06 06:27:43;;;;;;;;;;;;;;;6.34;100.00;100004.50;5034070;28;19918;-85
2023/09/06 06:30:11;;;;;;;;;;;;;;;6.33;100.00;100006.28;5035085;28;19921;-84
2023/09/06 06:32:36;;;;;;;;;;;;;;;6.30;100.00;100005.44;5034888;28;20028;-85
2023/09/06 06:35:08;;;;;;;;;;;;;;;6.33;100.00;100001.00;5035317;28;20008;-86
2023/09/06 06:37:34;;;;;;;;;;;;;;;6.35;100.00;100004.47;5034847;28;19918;-85
2023/09/06 06:39:59;;;;;;;;;;;;;;;6.31;100.00;100004.56;5034770;28;19925;-86
2023/09/06 06:42:25;;;;;;;;;;;;;;;6.30;100.00;100003.72;5032603;28;19956;-85
2023/09/06 06:44:51;;;;;;;;;;;;;;;6.25;100.00;100017.84;5034729;28;19921;-89
2023/09/06 06:47:16;;;;;;;;;;;;;;;6.21;100.00;100017.06;5033983;28;20045;-88
2023/09/06 06:49:41;;;;;;;;;;;;;;;6.23;100.00;100015.25;5034654;28;20364;-88
2023/09/06 06:52:07;;;;;;;;;;;;;;;6.28;100.00;100018.66;5034373;28;19921;-86
2023/09/06 06:54:32;;;;;;;;;;;;;;;6.18;100.00;100019.75;5034568;28;19971;-85
2023/09/06 06:56:57;;;;;;;;;;;;;;;6.16;100.00;100018.94;5033380;28;19921;-86
2023/09/06 06:59:22;;;;;;;;;;;;;;;6.26;100.00;100007.28;5034479;28;20369;-88
2023/09/06 07:01:48;;;;;;;;;;;;;;;6.22;100.00;100015.28;5034494;28;20364;-86
2023/09/06 07:04:13;;;;;;;;;;;;;;;6.21;100.00;100016.19;5034525;28;20008;-87
2023/09/06 07:06:39;;;;;;;;;;;;;;;6.24;100.00;100017.00;5016454;28;19921;-86
2023/09/06 07:09:04;;;;;;;;;;;;;;;6.22;100.00;100026.66;5016163;28;20015;-85
2023/09/06 07:11:31;;;;;;;;;;;;;;;6.21;100.00;100019.69;5032916;28;20045;-86
2023/09/06 07:13:56;;;;;;;;;;;;;;;6.23;100.00;100011.78;5015747;28;19921;-86
2023/09/06 07:16:22;;;;;;;;;;;;;;;6.17;100.00;100018.91;5016190;28;20292;-85
2023/09/06 07:42:05;;;;;;;;;;;;;;;6.10;100.00;100024.31;5575264;22;19924;-88
2023/09/06 07:44:32;;;;;;;;;;;;;;;6.03;100.00;100023.59;5062389;28;19955;-85
2023/09/06 07:46:57;;;;;;;;;;;;;;;5.98;100.00;100021.03;5063776;28;19916;-87
2023/09/06 07:49:23;;;;;;;;;;;;;;;6.07;100.00;100019.13;5045934;28;20359;-89
2023/09/06 07:52:04;;;;;;;;;;;;;;;;;;;;;
2023/09/06 07:54:30;;;;;;;;;;;;;;;5.98;100.00;100023.66;5063000;28;19921;-88
2023/09/06 07:57:15;;;;;;;;;;;;;;;5.99;100.00;100022.75;5047133;28;20367;-89
2023/09/06 07:59:41;;;;;;;;;;;;;;;5.96;100.00;100021.94;5063737;28;19923;-92
2023/09/06 08:02:06;;;;;;;;;;;;;;;5.98;100.00;100015.78;5062966;28;20011;-86
2023/09/06 08:04:31;;;;;;;;;;;;;;;6.00;100.00;100019.25;5063263;28;20002;-88
2023/09/06 08:06:57;;;;;;;;;;;;;;;5.91;100.00;100019.38;5063102;28;19917;-87
2023/09/06 08:09:22;;;;;;;;;;;;;;;7.52;100.00;100021.00;5063040;28;19917;-88
2023/09/06 08:11:50;;;;;;;;;;;;;;;13.69;100.00;100019.09;5062206;28;19917;-92
2023/09/06 08:14:15;;;;;;;;;;;;;;;15.77;100.00;100007.44;5047022;28;19924;-87
2023/09/06 08:16:40;;;;;;;;;;;;;;;16.84;100.00;100006.97;5063950;28;20283;-84
2023/09/06 08:19:06;;;;;;;;;;;;;;;12.87;100.00;100004.53;5062456;28;19955;-87
2023/09/06 08:21:31;;;;;;;;;;;;;;;10.20;100.00;100023.03;5062896;28;20394;-86
2023/09/06 08:23:56;;;;;;;;;;;;;;;9.21;100.00;100026.50;5062748;28;19917;-86
2023/09/06 08:26:22;;;;;;;;;;;;;;;8.61;100.00;100032.84;5061633;28;19916;-84
2023/09/06 08:28:47;;;;;;;;;;;;;;;8.38;100.00;100026.47;5062472;28;20385;-85
2023/09/06 08:31:12;;;;;;;;;;;;;;;8.15;100.00;100028.03;5063185;28;19920;-85
2023/09/06 08:33:37;;;;;;;;;;;;;;;7.98;100.00;100025.00;5062693;28;20355;-84
2023/09/06 08:36:03;;;;;;;;;;;;;;;7.85;100.00;100021.84;5062166;28;19917;-84
2023/09/06 08:38:28;;;;;;;;;;;;;;;7.72;100.00;100018.69;5062339;28;19923;-84
2023/09/06 08:40:53;;;;;;;;;;;;;;;7.57;100.00;100019.94;5059276;28;19921;-85
2023/09/06 08:43:19;;;;;;;;;;;;;;;7.53;100.00;100017.44;5062189;28;19924;-85
2023/09/06 08:45:46;;;;;;;;;;;;;;;7.44;100.00;100024.69;5062299;28;19942;-85
2023/09/06 08:48:12;;;;;;;;;;;;;;;7.37;100.00;100016.97;5061887;28;20075;-86
2023/09/06 08:50:38;;;;;;;;;;;;;;;7.42;100.00;100021.22;5062450;28;20007;-84
2023/09/06 08:53:04;;;;;;;;;;;;;;;7.28;100.00;100024.22;5060665;28;20205;-85
2023/09/06 08:55:30;;;;;;;;;;;;;;;7.30;100.00;100018.03;5060941;28;19989;-85
2023/09/06 08:57:56;;;;;;;;;;;;;;;7.15;100.00;100012.25;5057600;28;20007;-85
2023/09/06 09:00:23;;;;;;;;;;;;;;;7.16;100.00;100018.38;5061238;28;19971;-84
2023/09/06 09:02:48;;;;;;;;;;;;;;;7.10;100.00;100016.78;5060490;28;20453;-92
2023/09/06 09:05:14;;;;;;;;;;;;;;;7.15;100.00;100020.16;5043700;28;19916;-86
2023/09/06 09:07:39;;;;;;;;;;;;;;;7.09;100.00;100021.16;5061801;28;19943;-87
2023/09/06 09:10:07;;;;;;;;;;;;;;;7.03;100.00;100012.56;5057892;28;19965;-87
2023/09/06 09:12:36;;;;;;;;;;;;;;;7.04;100.00;100014.28;5040988;28;19924;-91
2023/09/06 09:15:03;;;;;;;;;;;;;;;6.96;100.00;100011.84;5067006;28;19923;-86
2023/09/06 09:17:28;;;;;;;;;;;;;;;7.09;100.00;100018.53;5061067;28;20900;-87
2023/09/06 09:19:55;;;;;;;;;;;;;;;6.99;100.00;100006.50;5061805;28;19975;-84
2023/09/06 09:22:34;;;;;;;;;;;;;;;7.05;100.00;100016.91;5061039;28;19927;-84
2023/09/06 09:25:02;;;;;;;;;;;;;;;7.00;100.00;100013.47;5061383;28;20478;-82
2023/09/06 09:27:28;;;;;;;;;;;;;;;6.86;100.00;100011.22;5040614;28;19924;-84
2023/09/06 09:29:54;;;;;;;;;;;;;;;6.95;100.00;100019.78;5043230;28;19920;-84
2023/09/06 09:32:20;;;;;;;;;;;;;;;6.94;100.00;100015.41;5062031;28;19931;-83
2023/09/06 09:34:45;;;;;;;;;;;;;;;6.92;100.00;100020.72;5058550;28;19920;-82
2023/09/06 09:37:12;;;;;;;;;;;;;;;6.90;100.00;100019.88;5060139;28;19932;-82
2023/09/06 09:39:37;;;;;;;;;;;;;;;6.89;100.00;100013.78;5057703;28;19916;-84
2023/09/06 09:42:09;;;;;;;;;;;;;;;6.93;100.00;100008.44;5040878;28;19924;-83
2023/09/06 09:44:34;;;;;;;;;;;;;;;6.95;100.00;100010.09;5061433;28;19927;-83
2023/09/06 09:47:07;;;;;;;;;;;;;;;6.93;100.00;100006.66;5062176;28;19917;-84
2023/09/06 09:49:33;;;;;;;;;;;;;;;6.95;100.00;100002.19;5061193;28;19920;-82
2023/09/06 09:51:58;;;;;;;;;;;;;;;6.93;100.00;99995.25;5061935;28;19913;-85
2023/09/06 09:54:24;;;;;;;;;;;;;;;6.85;100.00;100001.56;5061715;28;20291;-85
2023/09/06 09:57:02;;;;;;;;;;;;;;;6.92;100.00;99997.00;5059189;28;19974;-83
2023/09/06 09:59:28;;;;;;;;;;;;;;;6.93;100.00;100006.66;5059619;28;20015;-89
2023/09/06 10:01:56;;;;;;;;;;;;;;;6.94;100.00;99999.59;5058050;28;19992;-85
2023/09/06 10:04:21;;;;;;;;;;;;;;;6.97;100.00;100000.38;5060847;28;20391;-83
2023/09/06 10:06:47;;;;;;;;;;;;;;;6.83;100.00;99995.47;5061601;28;19967;-83
2023/09/06 10:09:14;;;;;;;;;;;;;;;6.88;100.00;99998.00;5061208;28;20364;-85
2023/09/06 10:11:40;;;;;;;;;;;;;;;6.86;100.00;99994.50;5060603;28;19916;-84
2023/09/06 10:14:06;;;;;;;;;;;;;;;6.84;100.00;99996.31;5061544;28;19924;-86
2023/09/06 10:16:31;;;;;;;;;;;;;;;6.77;100.00;99990.34;5059971;28;19917;-83
2023/09/06 10:18:57;;;;;;;;;;;;;;;6.75;100.00;99996.53;5061443;28;20359;-84
2023/09/06 10:21:23;;;;;;;;;;;;;;;6.76;100.00;99991.25;5061416;28;20263;-84
2023/09/06 10:23:48;;;;;;;;;;;;;;;6.76;100.00;99999.13;5061139;28;19924;-85
2023/09/06 10:26:23;;;;;;;;;;;;;;;6.73;100.00;99989.56;5059763;28;20393;-86
2023/09/06 10:28:56;;;;;;;;;;;;;;;6.65;100.00;99994.16;5064635;28;19991;-85
2023/09/06 10:31:29;;;;;;;;;;;;;;;6.71;100.00;99990.50;5065155;28;19955;-85
2023/09/06 10:33:55;;;;;;;;;;;;;;;6.71;100.00;99986.06;5064145;28;19920;-85
2023/09/06 10:36:22;;;;;;;;;;;;;;;6.70;100.00;99994.00;5064567;28;19924;-87
2023/09/06 10:38:50;;;;;;;;;;;;;;;6.77;100.00;99994.75;5065050;28;19913;-84
2023/09/06 10:41:15;;;;;;;;;;;;;;;6.73;100.00;99989.56;5044585;28;20398;-85
2023/09/06 10:43:59;;;;;;;;;;;;;;;6.73;100.00;99993.94;5064881;28;19927;-83
2023/09/06 10:46:26;;;;;;;;;;;;;;;6.74;100.00;99985.16;5065082;28;19978;-84
2023/09/06 10:49:10;;;;;;;;;;;;;;;6.80;100.00;99984.16;5063466;28;19917;-88
2023/09/06 10:51:54;;;;;;;;;;;;;;;6.67;100.00;99981.81;5064852;28;20352;-84
2023/09/06 10:54:21;;;;;;;;;;;;;;;6.70;100.00;99979.09;5064506;28;20352;-85
2023/09/06 10:56:57;;;;;;;;;;;;;;;6.66;100.00;99982.69;5063404;28;19920;-84
2023/09/06 10:59:22;;;;;;;;;;;;;;;6.74;100.00;99974.63;5064306;28;19916;-83
2023/09/06 11:02:06;;;;;;;;;;;;;;;6.63;100.00;99972.22;5064611;28;19917;-84
2023/09/06 11:04:31;;;;;;;;;;;;;;;6.63;100.00;99977.50;5064155;28;20034;-85
2023/09/06 11:06:58;;;;;;;;;;;;;;;6.73;100.00;99978.16;5064210;28;20490;-84
2023/09/06 11:09:25;;;;;;;;;;;;;;;6.67;100.00;99973.03;5064152;28;19913;-84
2023/09/06 11:11:51;;;;;;;;;;;;;;;6.67;100.00;99971.28;5063021;28;19916;-85
2023/09/06 11:14:17;;;;;;;;;;;;;;;6.70;100.00;99972.94;5044236;28;19931;-87
2023/09/06 11:16:48;;;;;;;;;;;;;;;6.75;100.00;99967.56;5057703;28;20311;-87
2023/09/06 11:19:13;;;;;;;;;;;;;;;6.67;100.00;99958.09;5058977;28;20013;-84
2023/09/06 11:21:38;;;;;;;;;;;;;;;6.68;100.00;99957.19;5042811;28;19987;-86
2023/09/06 11:24:03;;;;;;;;;;;;;;;6.71;100.00;99962.38;5061698;28;19921;-87
2023/09/06 11:26:34;;;;;;;;;;;;;;;6.64;100.00;99960.81;5062613;28;19928;-90
2023/09/06 11:29:03;;;;;;;;;;;;;;;6.59;100.00;99953.91;5045543;28;19924;-86
2023/09/06 11:31:33;;;;;;;;;;;;;;;6.65;100.00;99948.50;5063184;28;20422;-87
2023/09/06 11:34:05;;;;;;;;;;;;;;;6.66;100.00;99952.88;5064641;28;19921;-86
2023/09/06 11:36:32;;;;;;;;;;;;;;;6.79;100.00;99948.19;5062026;28;19921;-87
2023/09/06 11:39:01;;;;;;;;;;;;;;;6.77;100.00;99960.53;5062354;28;19919;-85
2023/09/06 11:41:28;;;;;;;;;;;;;;;6.67;100.00;99947.56;5061006;28;19947;-86
2023/09/06 11:43:56;;;;;;;;;;;;;;;6.66;100.00;99947.59;5039535;28;19928;-82
2023/09/06 11:46:22;;;;;;;;;;;;;;;6.70;100.00;99941.34;5037381;28;19921;-82
2023/09/06 11:48:48;;;;;;;;;;;;;;;6.57;100.00;99948.69;5044065;28;20363;-84
2023/09/06 11:51:14;;;;;;;;;;;;;;;6.59;100.00;99954.78;5042474;28;20331;-85
2023/09/06 11:53:45;;;;;;;;;;;;;;;6.54;100.00;99943.47;5043007;28;20007;-86
2023/09/06 11:56:13;;;;;;;;;;;;;;;6.59;100.00;99941.63;5042154;28;19921;-83
2023/09/06 11:58:47;;;;;;;;;;;;;;;6.54;100.00;99940.84;5040917;28;19917;-85
2023/09/06 12:01:19;;;;;;;;;;;;;;;6.49;100.00;99935.72;5043920;28;19921;-85
2023/09/06 12:03:45;;;;;;;;;;;;;;;6.52;100.00;99943.53;5043181;28;19952;-85
2023/09/06 12:06:10;;;;;;;;;;;;;;;6.61;100.00;99942.44;5042343;28;19952;-84
2023/09/06 12:08:36;;;;;;;;;;;;;;;6.65;100.00;99935.34;5043006;28;19927;-84
2023/09/06 12:11:11;;;;;;;;;;;;;;;6.52;100.00;99938.25;5041627;28;19920;-84
2023/09/06 12:13:37;;;;;;;;;;;;;;;6.51;100.00;99930.38;5041353;28;20383;-84
2023/09/06 12:16:06;;;;;;;;;;;;;;;6.54;100.00;99932.94;5043019;28;19927;-87
2023/09/06 12:18:33;;;;;;;;;;;;;;;6.56;100.00;99925.91;5042111;28;19974;-85
2023/09/06 12:20:58;;;;;;;;;;;;;;;6.48;100.00;99930.50;5041481;28;20015;-84
2023/09/06 12:23:29;;;;;;;;;;;;;;;6.55;100.00;99926.78;5041657;28;20351;-84
2023/09/06 12:25:54;;;;;;;;;;;;;;;6.59;100.00;99920.56;5041040;28;19917;-86
2023/09/06 12:28:20;;;;;;;;;;;;;;;6.53;100.00;99926.84;5042068;28;19971;-87
2023/09/06 12:30:45;;;;;;;;;;;;;;;6.49;100.00;99922.56;5043083;28;19958;-87
2023/09/06 12:33:13;;;;;;;;;;;;;;;6.47;100.00;99919.06;5041831;28;19917;-88
2023/09/06 12:35:40;;;;;;;;;;;;;;;6.52;100.00;99917.19;5041376;28;19943;-86
2023/09/06 12:38:06;;;;;;;;;;;;;;;6.63;100.00;99913.44;5042896;28;19999;-85
2023/09/06 12:40:32;;;;;;;;;;;;;;;6.53;100.00;99907.56;5042547;28;19921;-85
2023/09/06 12:42:58;;;;;;;;;;;;;;;6.59;100.00;99903.88;5043028;28;19921;-85
2023/09/06 12:45:27;;;;;;;;;;;;;;;6.56;100.00;99907.47;5062515;28;20272;-86
2023/09/06 12:47:56;;;;;;;;;;;;;;;6.47;100.00;99897.16;5061430;28;19924;-86
2023/09/06 12:50:22;;;;;;;;;;;;;;;6.46;100.00;99906.84;5062319;28;19916;-85
2023/09/06 12:52:47;;;;;;;;;;;;;;;6.45;100.00;99899.84;5062227;28;20274;-85
2023/09/06 12:55:13;;;;;;;;;;;;;;;6.56;100.00;99891.69;5062018;28;19924;-86
2023/09/06 12:57:38;;;;;;;;;;;;;;;6.47;100.00;99898.03;5060658;28;20256;-86
2023/09/06 13:00:10;;;;;;;;;;;;;;;6.43;100.00;99891.13;5062779;28;19923;-86
2023/09/06 13:02:35;;;;;;;;;;;;;;;6.40;100.00;99888.56;5061374;28;20030;-85
2023/09/06 13:05:01;;;;;;;;;;;;;;;6.48;100.00;99891.88;5044317;28;20423;-85
2023/09/06 13:07:26;;;;;;;;;;;;;;;6.45;100.00;99883.19;5062340;28;19920;-88
2023/09/06 13:09:52;;;;;;;;;;;;;;;6.36;100.00;99887.75;5044025;28;19956;-85
2023/09/06 13:12:17;;;;;;;;;;;;;;;6.45;100.00;99891.09;5042771;28;19916;-84
2023/09/06 13:14:42;;;;;;;;;;;;;;;6.45;100.00;99888.44;5061710;28;20392;-84
2023/09/06 13:17:07;;;;;;;;;;;;;;;6.39;100.00;99881.56;5061895;28;19923;-84
2023/09/06 13:19:33;;;;;;;;;;;;;;;6.33;100.00;99882.59;5044090;28;19948;-85
2023/09/06 13:21:58;;;;;;;;;;;;;;;6.34;100.00;99886.91;5062066;28;19943;-85
2023/09/06 13:24:24;;;;;;;;;;;;;;;6.43;100.00;99879.69;5061679;28;19917;-85
2023/09/06 13:26:49;;;;;;;;;;;;;;;6.36;100.00;99868.47;5042571;28;19924;-86
2023/09/06 13:29:15;;;;;;;;;;;;;;;6.44;100.00;99877.03;5062216;28;19917;-85
2023/09/06 13:31:40;;;;;;;;;;;;;;;6.43;100.00;99872.69;5061810;28;19923;-86
2023/09/06 13:34:05;;;;;;;;;;;;;;;6.40;100.00;99867.50;5043256;28;19964;-86
2023/09/06 13:36:35;;;;;;;;;;;;;;;6.45;100.00;99872.66;5061607;28;19923;-85
2023/09/06 13:39:01;;;;;;;;;;;;;;;6.42;100.00;99865.69;5062075;28;19927;-87
2023/09/06 13:41:26;;;;;;;;;;;;;;;6.40;100.00;99869.25;5041363;28;19917;-86
2023/09/06 13:43:51;;;;;;;;;;;;;;;6.44;100.00;99865.66;5061410;28;19924;-84
2023/09/06 13:46:16;;;;;;;;;;;;;;;6.51;100.00;99859.31;5062107;28;19917;-86
2023/09/06 13:48:42;;;;;;;;;;;;;;;6.52;100.00;99866.31;5043411;28;19998;-85
2023/09/06 13:51:07;;;;;;;;;;;;;;;6.51;100.00;99857.56;5062051;28;20371;-84
2023/09/06 13:53:32;;;;;;;;;;;;;;;6.42;100.00;99856.94;5061667;28;19916;-84
2023/09/06 13:55:58;;;;;;;;;;;;;;;6.32;100.00;99857.16;5042295;28;20270;-85
2023/09/06 13:58:25;;;;;;;;;;;;;;;6.35;100.00;99850.94;5060812;28;20444;-84
2023/09/06 14:00:54;;;;;;;;;;;;;;;6.33;100.00;99853.63;5061807;28;20310;-84
2023/09/06 14:03:19;;;;;;;;;;;;;;;6.43;100.00;99856.91;5063547;28;20019;-84
2023/09/06 14:05:45;;;;;;;;;;;;;;;6.34;100.00;99852.72;5065432;28;20014;-84
2023/09/06 14:08:10;;;;;;;;;;;;;;;6.32;100.00;99848.41;5065861;28;19947;-87
2023/09/06 14:10:35;;;;;;;;;;;;;;;6.30;100.00;99853.72;5064779;28;19974;-84
2023/09/06 14:13:01;;;;;;;;;;;;;;;6.41;100.00;99844.66;5064179;28;19920;-84
2023/09/06 14:15:26;;;;;;;;;;;;;;;6.35;100.00;99846.56;5047316;28;19977;-84
2023/09/06 14:17:52;;;;;;;;;;;;;;;6.40;100.00;99851.72;5065299;28;20340;-84
2023/09/06 14:20:17;;;;;;;;;;;;;;;6.38;100.00;99844.75;5065062;28;19917;-84
2023/09/06 14:22:42;;;;;;;;;;;;;;;6.34;100.00;99836.91;5046905;28;20279;-87
2023/09/06 14:25:08;;;;;;;;;;;;;;;6.39;100.00;99838.59;5065407;28;19916;-85
2023/09/06 14:27:33;;;;;;;;;;;;;;;6.39;100.00;99841.22;5063693;28;20391;-85
2023/09/06 14:29:59;;;;;;;;;;;;;;;6.26;100.00;99840.66;5046904;28;19916;-84
2023/09/06 14:32:24;;;;;;;;;;;;;;;6.33;100.00;99840.47;5064725;28;19960;-87
2023/09/06 14:34:50;;;;;;;;;;;;;;;6.32;100.00;99838.72;5064675;28;20421;-84
2023/09/06 14:37:16;;;;;;;;;;;;;;;6.29;100.00;99830.91;5046798;28;20345;-85
2023/09/06 14:39:41;;;;;;;;;;;;;;;6.35;100.00;99838.66;5064956;28;19942;-87
2023/09/06 14:42:07;;;;;;;;;;;;;;;6.38;100.00;99826.31;5063718;28;19921;-84
2023/09/06 14:44:34;;;;;;;;;;;;;;;6.33;100.00;99826.44;5065251;28;20023;-84
2023/09/06 14:46:59;;;;;;;;;;;;;;;6.32;100.00;99835.25;5063515;28;19931;-83
2023/09/06 14:49:24;;;;;;;;;;;;;;;6.29;100.00;99824.78;5064164;28;19917;-84
2023/09/06 14:51:50;;;;;;;;;;;;;;;6.30;100.00;99823.88;5046965;28;20347;-86
2023/09/06 14:54:15;;;;;;;;;;;;;;;6.33;100.00;99832.56;5064123;28;19927;-84
2023/09/06 14:56:40;;;;;;;;;;;;;;;6.29;100.00;99830.91;5064166;28;19917;-84
2023/09/06 14:59:06;;;;;;;;;;;;;;;6.27;100.00;99826.56;5046367;28;20718;-86
2023/09/06 15:01:33;;;;;;;;;;;;;;;6.25;100.00;99823.13;5063543;28;20391;-88
2023/09/06 15:03:58;;;;;;;;;;;;;;;6.24;100.00;99835.44;5064430;28;19917;-87
2023/09/06 15:06:23;;;;;;;;;;;;;;;6.25;100.00;99823.97;5047090;28;19928;-83
2023/09/06 15:08:49;;;;;;;;;;;;;;;6.29;100.00;99820.38;5064226;28;19916;-84
2023/09/06 15:11:14;;;;;;;;;;;;;;;6.29;100.00;99817.75;5063445;28;19927;-84
2023/09/06 15:13:40;;;;;;;;;;;;;;;6.35;100.00;99809.72;5046068;28;19940;-83
2023/09/06 15:16:05;;;;;;;;;;;;;;;6.31;100.00;99810.66;5064084;28;19931;-83
2023/09/06 15:18:30;;;;;;;;;;;;;;;6.35;100.00;99807.06;5064273;28;19998;-89
2023/09/06 15:20:56;;;;;;;;;;;;;;;6.36;100.00;99811.41;5046754;28;19924;-85
2023/09/06 15:23:22;;;;;;;;;;;;;;;6.35;100.00;99804.44;5063960;28;19923;-85
2023/09/06 15:25:48;;;;;;;;;;;;;;;6.38;100.00;99810.53;5063100;28;19921;-84
2023/09/06 15:28:13;;;;;;;;;;;;;;;6.35;100.00;99803.56;5045758;28;19917;-85
2023/09/06 15:30:39;;;;;;;;;;;;;;;6.41;100.00;99806.03;5063460;28;19956;-84
2023/09/06 15:33:04;;;;;;;;;;;;;;;6.31;100.00;99808.03;5062609;28;20283;-84
2023/09/06 15:35:29;;;;;;;;;;;;;;;6.42;100.00;99801.66;5045770;28;20371;-83
2023/09/06 15:37:58;;;;;;;;;;;;;;;6.35;100.00;99801.81;5065058;28;19939;-85
2023/09/06 15:40:24;;;;;;;;;;;;;;;6.38;100.00;99803.47;5064071;28;19916;-84
2023/09/06 15:42:49;;;;;;;;;;;;;;;6.20;100.00;99802.19;5040296;28;19925;-85
2023/09/06 15:45:14;;;;;;;;;;;;;;;6.43;100.00;99806.00;5044292;28;20368;-84
2023/09/06 15:47:45;;;;;;;;;;;;;;;6.30;100.00;99795.81;5043587;28;19920;-88
2023/09/06 15:50:12;;;;;;;;;;;;;;;6.23;100.00;99796.84;5042444;28;20779;-88
2023/09/06 15:52:37;;;;;;;;;;;;;;;6.27;100.00;99793.25;5043118;28;19928;-86
2023/09/06 15:55:05;;;;;;;;;;;;;;;6.20;100.00;99798.69;5043095;28;19917;-86
2023/09/06 15:57:31;;;;;;;;;;;;;;;6.21;100.00;99801.28;5040960;28;19921;-89
2023/09/06 15:59:56;;;;;;;;;;;;;;;6.22;100.00;99799.53;5043357;28;19924;-90
2023/09/06 16:02:21;;;;;;;;;;;;;;;6.21;100.00;99798.66;5043529;28;19917;-86
2023/09/06 16:04:47;;;;;;;;;;;;;;;6.15;100.00;99802.28;5042345;28;20011;-87
2023/09/06 16:07:12;;;;;;;;;;;;;;;6.11;100.00;99798.03;5043430;28;20297;-86
2023/09/06 16:09:37;;;;;;;;;;;;;;;6.16;100.00;99797.91;5042863;28;19933;-86
2023/09/06 16:12:03;;;;;;;;;;;;;;;6.25;100.00;99791.53;5041657;28;19956;-86
2023/09/06 16:14:29;;;;;;;;;;;;;;;6.20;100.00;99794.28;5043915;28;19929;-86
2023/09/06 16:16:54;;;;;;;;;;;;;;;6.13;100.00;99800.63;5042251;28;19917;-87
2023/09/06 16:19:21;;;;;;;;;;;;;;;6.09;100.00;99796.31;5042271;28;19959;-87
2023/09/06 16:21:46;;;;;;;;;;;;;;;6.17;100.00;99794.38;5043265;28;19927;-87
2023/09/06 16:24:11;;;;;;;;;;;;;;;6.18;100.00;99801.38;5043804;28;19916;-90
2023/09/06 16:26:36;;;;;;;;;;;;;;;6.22;100.00;99803.00;5040635;28;20325;-87
2023/09/06 16:29:05;;;;;;;;;;;;;;;6.22;100.00;99805.63;5043848;28;19917;-88
2023/09/06 16:31:30;;;;;;;;;;;;;;;6.23;100.00;99804.75;5042092;28;20039;-88
2023/09/06 16:33:55;;;;;;;;;;;;;;;6.14;100.00;99811.13;5057801;28;20019;-88
2023/09/06 16:36:22;;;;;;;;;;;;;;;6.17;100.00;99810.16;5043124;28;19924;-87
2023/09/06 16:38:47;;;;;;;;;;;;;;;6.27;100.00;99813.41;5042938;28;19920;-86
2023/09/06 16:41:14;;;;;;;;;;;;;;;6.11;100.00;99812.94;5041301;28;19970;-85
2023/09/06 16:43:39;;;;;;;;;;;;;;;6.07;100.00;99809.50;5058633;28;19920;-88
2023/09/06 16:46:04;;;;;;;;;;;;;;;6.18;100.00;99812.75;5063579;28;19917;-85
2023/09/06 16:48:30;;;;;;;;;;;;;;;6.27;100.00;99816.94;5062861;28;19913;-86
2023/09/06 16:50:55;;;;;;;;;;;;;;;6.29;100.00;99809.84;5062091;28;19925;-87
2023/09/06 16:53:20;;;;;;;;;;;;;;;6.12;100.00;99814.66;5061858;28;19923;-86
2023/09/06 16:55:46;;;;;;;;;;;;;;;6.11;100.00;99807.66;5044206;28;19927;-86
2023/09/06 16:58:12;;;;;;;;;;;;;;;6.14;100.00;99812.84;5061916;28;19921;-86
2023/09/06 17:00:37;;;;;;;;;;;;;;;6.21;100.00;99810.94;5062265;28;20277;-87
2023/09/06 17:03:03;;;;;;;;;;;;;;;6.15;100.00;99807.56;5044541;28;19920;-91
2023/09/06 17:05:28;;;;;;;;;;;;;;;6.16;100.00;99809.28;5062246;28;19924;-85
2023/09/06 17:07:54;;;;;;;;;;;;;;;6.21;100.00;99817.09;5062199;28;19920;-86
2023/09/06 17:10:19;;;;;;;;;;;;;;;6.18;100.00;99819.78;5063072;28;20012;-85
2023/09/06 17:12:49;;;;;;;;;;;;;;;6.17;100.00;99815.41;5060399;28;20337;-85
2023/09/06 17:15:18;;;;;;;;;;;;;;;6.22;100.00;99829.31;5061074;28;20444;-88